Redwood City, CA (94063)

12:50 PM PST on December 21, 2014 (GMT -0800)
Centennial | Change Station
CLOSE
Current Station
Personal Weather Station
Location: Redwood City, CA
Elevation: 10 ft
Nearby Weather Stations
Active Advisory: Coastal Flood Advisory

Elev 10 ft 37.50 °N, 122.24 °W | Updated 5 minutes ago

Overcast
Overcast
62.9 °F
Feels Like 62.9 °F
N
1.0
Wind Variable Wind from SE
Gusts 12.0 mph

Today
High -- | Low -- °F
--% Chance of Precip.
Yesterday
High -- | Low -- °F
Precip. -- in
7:19 AM 4:54 PM
Waning Crescent, 0% visible
Pressure 30.31 in
Visibility 8.0 miles
Clouds Mostly Cloudy 1300 ft
Overcast 1900 ft
Dew Point 59 °F
Humidity 88%
Rainfall 0.00 in
Snow Depth Not available.
UV 1 out of 12
Pollen 4.00 out of 12
Air Quality Not available.
Flu Activity Not available.
METAR KSQL 211950Z 29008KT 8SM BKN013 OVC019 17/15 A3031

More Conditions Fewer Conditions

Pressure 30.31 in
Visibility 8.0 miles
Clouds Mostly Cloudy 1300 ft
Overcast 1900 ft
Dew Point 59 °F
Humidity 88%
Rainfall 0.00 in
Snow Depth Not available.
UV 1 out of 12
Pollen 4.00 out of 12
Air Quality Not available.
Flu Activity Not available.
METAR KSQL 211950Z 29008KT 8SM BKN013 OVC019 17/15 A3031

More Conditions Fewer Conditions

10-Day Weather Forecast

Almanac

Astronomy

Dec. 21, 2014 Rise Set
Actual Time
Civil Twilight
Nautical Twilight
Astronomical Twilight
Moon
Length of Visible Light
Length of Day
Tomorrow will be .
, % of the Moon is Illuminated

Today's Extremes

State Highs State Lows

Community

WunderPhotos

Upload Photos

1,779,471 photos uploaded!

WunderBlogs® & News

Nearby

Air Quality

  Air Quality AQ Index Pollutant
Not available.

Snow Depth

Station Depth Elevation

Earthquake Activity

City Distance Mag. Time & Date
Minimum magnitude displayed is 2.5.

Coastal Water Temperatures

Place Temperature

Nearby Weather Stations